Time;durP1;ratioP1;P1;durP2;ratioP2;P2;SDS_P1;SDS_P2;PMS_P1;PMS_P2;Temp;Humidity;BMP_temperature;BMP_pressure;BME280_temperature;BME280_humidity;BME280_pressure;Samples;Min_cycle;Max_cycle;Signal;HPM_P1;HPM_P2
2022/11/06 00:00:37;;;;;;;1.60;1.20;;;9.50;98.20;;;;;;4970909;28;21132;-76
2022/11/06 00:03:04;;;;;;;1.60;1.10;;;9.50;98.20;;;;;;4960249;28;20492;-75
2022/11/06 00:08:28;;;;;;;1.60;1.10;;;9.50;98.20;;;;;;4956502;28;20497;-75
2022/11/06 00:10:54;;;;;;;1.60;1.20;;;9.50;98.20;;;;;;4959656;28;20509;-75
2022/11/06 00:13:21;;;;;;;1.60;1.30;;;9.50;98.20;;;;;;4964449;28;20467;-75
2022/11/06 00:15:48;;;;;;;1.60;1.20;;;9.50;98.20;;;;;;4945796;28;20471;-75
2022/11/06 00:18:15;;;;;;;1.70;1.40;;;9.40;98.20;;;;;;4968295;28;20483;-75
2022/11/06 00:20:43;;;;;;;1.60;1.20;;;9.40;98.20;;;;;;4969626;28;20469;-75
2022/11/06 00:23:13;;;;;;;1.60;1.20;;;9.40;98.20;;;;;;4974220;28;20481;-75
2022/11/06 00:25:41;;;;;;;1.60;1.20;;;9.40;98.20;;;;;;4971406;28;20462;-75
2022/11/06 00:28:08;;;;;;;1.60;1.20;;;9.40;98.20;;;;;;4958423;28;20860;-75
2022/11/06 00:30:35;;;;;;;1.57;1.20;;;9.40;98.20;;;;;;4970609;28;20472;-75
2022/11/06 00:33:02;;;;;;;1.50;1.10;;;9.30;98.20;;;;;;4959137;28;20535;-75
2022/11/06 00:35:29;;;;;;;1.60;1.10;;;9.30;98.20;;;;;;4970862;28;20462;-75
2022/11/06 00:37:57;;;;;;;1.60;1.20;;;9.30;98.20;;;;;;4958514;28;21069;-75
2022/11/06 00:40:24;;;;;;;1.60;1.20;;;9.30;98.20;;;;;;4970125;28;20951;-75
2022/11/06 00:42:55;;;;;;;1.60;1.20;;;9.20;98.20;;;;;;4974852;28;20547;-75
2022/11/06 00:45:22;;;;;;;1.60;1.20;;;9.30;98.20;;;;;;4970147;28;20478;-75
2022/11/06 00:47:49;;;;;;;1.60;1.10;;;9.30;98.20;;;;;;4957932;28;20536;-74
2022/11/06 00:50:16;;;;;;;1.60;1.20;;;9.30;98.20;;;;;;4969956;28;20465;-75
2022/11/06 00:52:43;;;;;;;1.60;1.20;;;9.30;98.20;;;;;;4973763;28;20488;-75
2022/11/06 00:55:11;;;;;;;1.60;1.20;;;9.40;98.20;;;;;;4972440;28;20468;-75
2022/11/06 00:57:38;;;;;;;1.60;1.20;;;9.40;98.20;;;;;;4977326;28;20489;-75
2022/11/06 01:00:06;;;;;;;1.57;1.20;;;9.40;98.20;;;;;;4970938;28;20487;-75
2022/11/06 01:02:33;;;;;;;1.60;1.20;;;9.40;98.20;;;;;;4962554;28;20486;-75
2022/11/06 01:04:59;;;;;;;1.60;1.13;;;9.40;98.20;;;;;;4971964;28;20458;-75
2022/11/06 01:07:26;;;;;;;1.60;1.20;;;9.50;98.20;;;;;;4963211;28;21042;-75
2022/11/06 01:09:56;;;;;;;1.57;1.10;;;9.50;98.20;;;;;;4973279;28;20568;-76
2022/11/06 01:12:24;;;;;;;1.60;1.20;;;9.50;98.20;;;;;;4962886;28;20561;-77
2022/11/06 01:14:51;;;;;;;1.60;1.20;;;9.50;98.20;;;;;;4956861;28;20883;-74
2022/11/06 01:17:18;;;;;;;1.60;1.20;;;9.50;98.20;;;;;;4956227;28;20521;-75
2022/11/06 01:19:45;;;;;;;1.60;1.17;;;9.50;98.20;;;;;;4971323;28;20895;-76
2022/11/06 01:22:11;;;;;;;1.60;1.20;;;9.50;98.20;;;;;;4965788;28;20838;-76
2022/11/06 01:24:38;;;;;;;1.60;1.20;;;9.50;98.20;;;;;;4991743;28;20503;-77
2022/11/06 01:27:06;;;;;;;1.60;1.20;;;9.50;98.20;;;;;;4972342;28;20489;-76
2022/11/06 01:29:34;;;;;;;1.60;1.10;;;9.50;98.20;;;;;;4972983;28;20937;-77
2022/11/06 01:32:01;;;;;;;1.60;1.23;;;9.50;98.20;;;;;;4963726;28;20552;-76
2022/11/06 01:34:28;;;;;;;1.60;1.20;;;9.50;98.20;;;;;;4972643;28;21274;-77
2022/11/06 01:36:55;;;;;;;1.60;1.20;;;9.50;98.20;;;;;;4969190;28;21210;-76
2022/11/06 01:39:22;;;;;;;1.60;1.30;;;9.50;98.20;;;;;;4971436;28;20489;-76
2022/11/06 01:41:52;;;;;;;1.60;1.30;;;9.50;98.20;;;;;;4961594;28;20485;-77
2022/11/06 01:45:11;;;;;;;1.60;1.10;;;9.50;98.20;;;;;;4972708;28;20466;-76
2022/11/06 01:47:39;;;;;;;1.60;1.20;;;9.50;98.20;;;;;;4961773;28;20569;-76
2022/11/06 01:50:09;;;;;;;1.60;1.27;;;9.50;98.20;;;;;;4971434;28;20481;-76
2022/11/06 01:52:37;;;;;;;1.60;1.30;;;9.40;98.20;;;;;;4975281;28;20523;-76
2022/11/06 01:55:10;;;;;;;1.60;1.30;;;9.40;98.20;;;;;;4973804;28;20524;-76
2022/11/06 01:57:37;;;;;;;1.60;1.40;;;9.40;98.20;;;;;;4960266;28;20477;-76
2022/11/06 02:00:06;;;;;;;1.60;1.20;;;9.40;98.20;;;;;;4971357;28;20500;-76
2022/11/06 02:02:33;;;;;;;1.60;1.20;;;9.40;98.20;;;;;;4960441;28;20494;-76
2022/11/06 02:05:01;;;;;;;1.60;1.20;;;9.30;98.20;;;;;;4972369;28;20465;-76
2022/11/06 02:07:28;;;;;;;1.60;1.20;;;9.30;98.20;;;;;;4958215;28;20489;-76
2022/11/06 02:09:55;;;;;;;1.60;1.30;;;9.30;98.20;;;;;;4970909;28;20975;-76
2022/11/06 02:12:35;;;;;;;1.60;1.20;;;9.30;98.20;;;;;;4966357;28;20536;-76
2022/11/06 02:15:09;;;;;;;1.60;1.20;;;9.30;98.20;;;;;;4954417;28;20477;-76
2022/11/06 02:17:52;;;;;;;1.60;1.20;;;9.30;98.20;;;;;;4955898;28;21142;-74
2022/11/06 02:20:28;;;;;;;1.60;1.20;;;9.30;98.20;;;;;;4971828;28;20708;-76
2022/11/06 02:23:10;;;;;;;1.60;1.20;;;9.30;98.20;;;;;;4976988;28;20477;-76
2022/11/06 02:25:48;;;;;;;1.60;1.33;;;9.30;98.20;;;;;;4972827;28;20549;-75
2022/11/06 02:28:22;;;;;;;1.60;1.10;;;9.20;98.20;;;;;;4958541;28;20926;-74
2022/11/06 02:30:51;;;;;;;1.60;1.20;;;9.20;98.20;;;;;;4947511;28;20466;-74
2022/11/06 02:33:24;;;;;;;2.70;2.50;;;9.20;98.20;;;;;;4987567;28;20493;-74
2022/11/06 02:35:58;;;;;;;1.60;1.17;;;9.10;98.20;;;;;;4965223;28;20466;-75
2022/11/06 02:38:29;;;;;;;1.60;1.20;;;9.10;98.20;;;;;;4940636;29;20482;-75
2022/11/06 02:41:00;;;;;;;1.70;1.50;;;9.00;98.20;;;;;;4944283;28;20473;-76
2022/11/06 02:43:32;;;;;;;1.60;1.30;;;9.00;98.20;;;;;;4967281;28;20840;-76
2022/11/06 02:46:05;;;;;;;1.60;1.20;;;9.00;98.20;;;;;;4945265;28;20839;-76
2022/11/06 02:48:39;;;;;;;1.60;1.20;;;9.00;98.20;;;;;;4970602;28;20494;-76
2022/11/06 02:51:11;;;;;;;1.60;1.20;;;9.00;98.20;;;;;;4961501;28;20461;-76
2022/11/06 02:53:40;;;;;;;1.60;1.17;;;9.00;98.20;;;;;;4971624;28;20473;-76
2022/11/06 02:56:11;;;;;;;1.60;1.20;;;9.00;98.20;;;;;;4962751;28;20466;-75
2022/11/06 02:58:46;;;;;;;1.60;1.20;;;9.00;98.20;;;;;;4957501;28;20489;-76
2022/11/06 03:01:18;;;;;;;1.60;1.20;;;9.00;98.20;;;;;;4950794;28;20500;-76
2022/11/06 03:03:50;;;;;;;1.60;1.20;;;9.00;98.20;;;;;;4980710;28;20524;-76
2022/11/06 03:06:27;;;;;;;1.60;1.20;;;9.00;98.20;;;;;;4965099;28;20483;-76
2022/11/06 03:08:59;;;;;;;1.60;1.20;;;9.00;98.20;;;;;;4971886;28;20508;-76
2022/11/06 03:11:28;;;;;;;1.70;1.43;;;9.00;98.20;;;;;;4953496;28;20485;-76
2022/11/06 03:14:03;;;;;;;1.60;1.20;;;9.00;98.20;;;;;;4973355;28;20582;-76
2022/11/06 03:16:39;;;;;;;2.13;1.93;;;9.00;98.20;;;;;;4947565;28;20848;-76
2022/11/06 03:19:11;;;;;;;1.60;1.10;;;9.10;98.20;;;;;;4968923;28;20847;-75
2022/11/06 03:21:51;;;;;;;1.60;1.20;;;9.10;98.20;;;;;;4967460;28;20480;-76
2022/11/06 03:24:24;;;;;;;1.60;1.20;;;9.10;98.20;;;;;;4978879;28;20465;-75
2022/11/06 03:26:53;;;;;;;2.00;1.50;;;9.20;98.20;;;;;;4968874;28;20547;-76
2022/11/06 03:29:27;;;;;;;1.60;1.20;;;9.20;98.20;;;;;;4976779;28;21014;-76
2022/11/06 03:31:59;;;;;;;1.60;1.30;;;9.20;98.20;;;;;;4961004;28;20485;-76
2022/11/06 03:34:31;;;;;;;1.60;1.20;;;9.20;98.20;;;;;;4954382;28;20486;-76
2022/11/06 03:37:05;;;;;;;1.60;1.20;;;9.20;98.20;;;;;;4959470;28;20608;-75
2022/11/06 03:39:36;;;;;;;1.60;1.30;;;9.10;98.20;;;;;;4975422;28;20486;-75
2022/11/06 03:42:06;;;;;;;8.80;3.53;;;9.10;98.20;;;;;;4960525;28;20482;-76
2022/11/06 03:44:39;;;;;;;1.60;1.20;;;9.10;98.20;;;;;;4972423;28;20462;-76
2022/11/06 03:47:11;;;;;;;1.60;1.20;;;9.10;98.20;;;;;;4961397;28;20493;-75
2022/11/06 03:49:43;;;;;;;1.60;1.20;;;9.10;98.20;;;;;;4967704;28;20484;-75
2022/11/06 03:52:15;;;;;;;1.60;1.20;;;9.10;98.20;;;;;;4966461;28;20564;-76
2022/11/06 03:54:46;;;;;;;1.60;1.20;;;9.00;98.20;;;;;;4974631;28;20867;-76
2022/11/06 03:57:16;;;;;;;5.33;3.23;;;9.00;98.20;;;;;;4960531;28;20493;-76
2022/11/06 03:59:49;;;;;;;1.60;1.20;;;9.00;98.20;;;;;;4969020;28;20486;-75
2022/11/06 04:02:17;;;;;;;1.60;1.33;;;8.90;98.20;;;;;;4958840;28;20494;-75
2022/11/06 04:04:50;;;;;;;1.60;1.30;;;8.80;98.20;;;;;;4955020;28;20812;-75
2022/11/06 04:07:20;;;;;;;1.60;1.20;;;8.80;98.20;;;;;;4955007;28;20490;-75
2022/11/06 04:15:31;;;;;;;1.60;1.20;;;8.90;98.20;;;;;;4961788;28;20458;-75
2022/11/06 04:17:58;;;;;;;1.60;1.20;;;8.90;98.20;;;;;;4957699;28;20494;-75
2022/11/06 04:23:31;;;;;;;1.60;1.20;;;8.90;98.20;;;;;;4968409;28;20582;-75
2022/11/06 04:28:59;;;;;;;1.60;1.30;;;8.90;98.20;;;;;;4979389;28;21029;-76
2022/11/06 04:31:37;;;;;;;1.60;1.20;;;8.90;98.20;;;;;;4964345;28;21097;-78
2022/11/06 04:34:12;;;;;;;1.60;1.20;;;8.90;98.20;;;;;;4974456;28;20465;-76
2022/11/06 04:36:45;;;;;;;1.60;1.20;;;8.90;98.20;;;;;;4970195;28;20498;-77
2022/11/06 04:39:18;;;;;;;1.60;1.10;;;8.90;98.20;;;;;;4981591;28;20492;-76
2022/11/06 04:41:52;;;;;;;1.60;1.20;;;8.90;98.20;;;;;;4971222;28;20480;-75
2022/11/06 04:44:27;;;;;;;1.60;1.20;;;8.90;98.20;;;;;;4981528;28;20757;-75
2022/11/06 04:46:59;;;;;;;1.83;1.63;;;8.90;98.20;;;;;;4962791;28;20848;-75
2022/11/06 04:49:29;;;;;;;1.60;1.20;;;8.90;98.20;;;;;;4973665;28;20498;-77
2022/11/06 04:51:57;;;;;;;1.60;1.20;;;8.90;98.20;;;;;;4974973;28;20512;-77
2022/11/06 04:54:25;;;;;;;1.60;1.20;;;8.90;98.20;;;;;;4981965;28;20901;-77
2022/11/06 04:56:56;;;;;;;1.97;1.77;;;8.90;98.20;;;;;;4973466;28;21301;-77
2022/11/06 04:59:24;;;;;;;1.60;1.20;;;8.90;98.20;;;;;;4978350;28;20486;-77
2022/11/06 05:01:51;;;;;;;1.60;1.10;;;8.90;98.20;;;;;;4963960;28;20492;-77
2022/11/06 05:04:19;;;;;;;1.60;1.20;;;8.90;98.20;;;;;;4962948;28;20494;-77
2022/11/06 05:06:46;;;;;;;1.60;1.30;;;8.90;98.20;;;;;;4953109;28;20890;-77
2022/11/06 05:09:13;;;;;;;1.60;1.20;;;9.00;98.20;;;;;;4978976;28;20515;-77
2022/11/06 05:11:39;;;;;;;1.60;1.20;;;9.00;98.20;;;;;;4959137;28;20937;-77
2022/11/06 05:14:06;;;;;;;1.60;1.20;;;9.00;98.20;;;;;;4972070;28;20462;-77
2022/11/06 05:16:33;;;;;;;1.60;1.20;;;8.90;98.20;;;;;;4952426;28;20500;-78
2022/11/06 05:19:00;;;;;;;1.60;1.20;;;8.90;98.20;;;;;;4972591;28;20488;-77
2022/11/06 05:24:12;;;;;;;1.60;1.20;;;9.00;98.20;;;;;;4983601;28;20624;-76
2022/11/06 05:26:39;;;;;;;1.60;1.20;;;8.90;98.20;;;;;;4963744;28;20478;-77
2022/11/06 05:29:06;;;;;;;1.60;1.20;;;8.90;98.20;;;;;;4974256;28;20891;-77
2022/11/06 05:31:33;;;;;;;1.60;1.20;;;8.90;98.20;;;;;;4966206;28;20485;-77
2022/11/06 05:34:00;;;;;;;1.60;1.20;;;8.90;98.20;;;;;;4971904;28;20458;-77
2022/11/06 05:36:28;;;;;;;1.60;1.27;;;8.90;98.20;;;;;;4961461;28;20565;-77
2022/11/06 05:38:55;;;;;;;1.60;1.20;;;8.90;98.20;;;;;;4969908;28;20578;-77
2022/11/06 05:41:22;;;;;;;1.60;1.20;;;8.90;98.20;;;;;;4966463;28;20477;-77
2022/11/06 05:43:49;;;;;;;1.60;1.20;;;8.90;98.20;;;;;;4980777;28;20462;-77
2022/11/06 05:46:16;;;;;;;1.60;1.20;;;8.90;98.20;;;;;;4963776;28;20478;-77
2022/11/06 05:48:42;;;;;;;1.60;1.20;;;8.90;98.20;;;;;;4973749;28;20545;-77
2022/11/06 05:51:10;;;;;;;1.60;1.20;;;8.90;98.20;;;;;;4962859;28;20485;-77
2022/11/06 05:53:38;;;;;;;1.60;1.20;;;8.90;98.20;;;;;;4980386;28;20490;-77
2022/11/06 05:56:06;;;;;;;1.60;1.20;;;9.00;98.20;;;;;;4963912;28;20465;-77
2022/11/06 05:58:33;;;;;;;1.60;1.20;;;9.00;98.20;;;;;;4973295;28;20488;-77
2022/11/06 06:00:59;;;;;;;1.60;1.10;;;9.00;98.20;;;;;;4965106;28;20457;-77
2022/11/06 06:03:27;;;;;;;1.60;1.30;;;9.00;98.20;;;;;;4971149;28;20466;-77
2022/11/06 06:05:53;;;;;;;1.60;1.20;;;9.00;98.20;;;;;;4961976;28;20470;-77
2022/11/06 06:08:20;;;;;;;1.60;1.20;;;9.00;98.20;;;;;;4975658;28;20514;-78
2022/11/06 06:10:49;;;;;;;1.60;1.20;;;9.00;98.20;;;;;;4960251;28;20462;-77
2022/11/06 06:13:16;;;;;;;4.03;3.73;;;9.00;98.20;;;;;;4979899;28;20589;-77
2022/11/06 06:15:43;;;;;;;1.60;1.20;;;9.00;98.20;;;;;;4974012;28;20553;-77
2022/11/06 06:18:11;;;;;;;1.60;1.20;;;9.00;98.20;;;;;;4968970;28;20482;-77
2022/11/06 06:20:38;;;;;;;1.60;1.20;;;9.00;98.20;;;;;;4975988;28;20472;-76
2022/11/06 06:23:05;;;;;;;1.60;1.30;;;9.00;98.20;;;;;;4971262;28;20518;-77
2022/11/06 06:25:32;;;;;;;1.60;1.20;;;9.00;98.20;;;;;;4966608;28;20968;-77
2022/11/06 06:28:00;;;;;;;1.60;1.20;;;9.00;98.20;;;;;;5000841;23;20791;-81
2022/11/06 06:30:27;;;;;;;1.60;1.20;;;9.00;98.20;;;;;;4996228;28;20477;-79
2022/11/06 06:32:54;;;;;;;1.60;1.20;;;9.10;98.20;;;;;;4995571;28;20499;-79
2022/11/06 06:35:20;;;;;;;1.60;1.20;;;9.10;98.20;;;;;;4987039;28;20481;-81
2022/11/06 06:37:52;;;;;;;1.60;1.37;;;9.10;98.20;;;;;;4982671;28;20484;-81
2022/11/06 06:40:19;;;;;;;1.60;1.30;;;9.10;98.20;;;;;;4992456;28;21180;-80
2022/11/06 06:42:46;;;;;;;1.60;1.20;;;9.10;98.20;;;;;;4996318;28;20492;-79
2022/11/06 06:45:14;;;;;;;1.60;1.20;;;9.10;98.20;;;;;;4991870;28;20472;-78
2022/11/06 06:47:41;;;;;;;1.60;1.20;;;9.10;98.20;;;;;;4995049;28;20686;-79
2022/11/06 06:50:08;;;;;;;1.60;1.20;;;9.10;98.20;;;;;;4990481;28;20672;-79
2022/11/06 06:52:35;;;;;;;1.60;1.23;;;9.10;98.20;;;;;;4993204;28;20491;-79
2022/11/06 06:55:02;;;;;;;1.60;1.20;;;9.10;98.20;;;;;;4994539;28;20465;-79
2022/11/06 06:57:29;;;;;;;1.60;1.20;;;9.10;98.20;;;;;;4993122;28;20591;-79
2022/11/06 06:59:56;;;;;;;1.60;1.20;;;9.10;98.20;;;;;;4996164;28;20457;-79
2022/11/06 07:02:24;;;;;;;1.60;1.20;;;9.10;98.20;;;;;;4995574;28;20484;-81
2022/11/06 07:04:50;;;;;;;1.60;1.30;;;9.10;98.20;;;;;;4998112;28;20464;-80
2022/11/06 07:07:17;;;;;;;2.03;1.83;;;9.10;98.20;;;;;;4997112;28;20555;-80
2022/11/06 07:09:44;;;;;;;1.60;1.20;;;9.10;98.20;;;;;;4998519;28;20485;-82
2022/11/06 07:12:11;;;;;;;1.60;1.20;;;9.10;98.20;;;;;;4990514;28;20484;-80
2022/11/06 07:14:37;;;;;;;1.60;1.30;;;9.20;98.20;;;;;;5000630;28;20461;-80
2022/11/06 07:17:04;;;;;;;1.60;1.20;;;9.20;98.20;;;;;;4993972;28;20974;-80
2022/11/06 07:19:32;;;;;;;1.60;1.20;;;9.30;98.20;;;;;;5001200;28;20845;-80
2022/11/06 07:21:59;;;;;;;1.60;1.20;;;9.30;98.20;;;;;;4994967;28;20499;-80
2022/11/06 07:24:26;;;;;;;1.60;1.20;;;9.40;98.20;;;;;;5000395;28;20465;-80
2022/11/06 07:26:52;;;;;;;1.60;1.20;;;9.40;98.20;;;;;;4994472;28;20492;-79
2022/11/06 07:29:19;;;;;;;1.60;1.20;;;9.50;98.20;;;;;;4999613;28;20544;-80
2022/11/06 07:31:46;;;;;;;1.60;1.20;;;9.60;98.20;;;;;;4995309;28;20483;-80
2022/11/06 07:34:13;;;;;;;1.60;1.30;;;9.60;98.20;;;;;;5004657;28;20464;-80
2022/11/06 07:36:41;;;;;;;1.60;1.20;;;9.70;98.20;;;;;;4980416;28;20531;-80
2022/11/06 07:39:08;;;;;;;1.60;1.30;;;9.80;98.20;;;;;;4994930;28;20540;-81
2022/11/06 07:41:35;;;;;;;1.60;1.20;;;9.90;98.20;;;;;;4995825;28;20491;-81
2022/11/06 07:44:02;;;;;;;1.60;1.20;;;9.90;98.20;;;;;;5003828;28;21025;-80
2022/11/06 07:46:28;;;;;;;1.60;1.20;;;10.00;98.20;;;;;;4990051;28;20490;-81
2022/11/06 07:48:55;;;;;;;1.70;1.50;;;10.10;98.20;;;;;;5003487;28;20496;-81
2022/11/06 07:51:22;;;;;;;1.60;1.20;;;10.20;98.20;;;;;;4986792;28;20510;-81
2022/11/06 07:53:50;;;;;;;1.60;1.20;;;10.30;98.20;;;;;;5009226;28;20461;-80
2022/11/06 07:56:17;;;;;;;1.60;1.20;;;10.30;98.20;;;;;;4991405;28;20475;-81
2022/11/06 07:58:44;;;;;;;1.60;1.20;;;10.40;98.20;;;;;;5007838;28;20481;-81
2022/11/06 08:01:15;;;;;;;1.60;1.20;;;10.50;98.20;;;;;;4987398;28;20483;-81
2022/11/06 08:03:42;;;;;;;3.40;2.33;;;10.60;98.20;;;;;;5009653;28;20950;-81
2022/11/06 08:06:09;;;;;;;1.60;1.10;;;10.70;98.20;;;;;;4991224;28;20485;-83
2022/11/06 08:08:35;;;;;;;1.60;1.10;;;10.70;98.20;;;;;;5014248;28;21049;-81
2022/11/06 08:11:04;;;;;;;1.60;1.10;;;10.80;98.20;;;;;;4993436;28;20464;-82
2022/11/06 08:13:32;;;;;;;1.60;1.10;;;10.80;98.20;;;;;;5010323;28;20470;-80
2022/11/06 08:15:59;;;;;;;1.60;1.10;;;10.70;98.20;;;;;;4989424;28;20460;-82
2022/11/06 08:18:26;;;;;;;1.60;1.10;;;10.70;98.20;;;;;;5007220;28;20481;-82
2022/11/06 08:20:53;;;;;;;1.57;1.10;;;10.80;98.20;;;;;;4983516;28;20789;-81
2022/11/06 08:23:20;;;;;;;1.63;1.20;;;10.90;98.20;;;;;;5006187;28;20461;-81
2022/11/06 08:25:47;;;;;;;1.60;1.10;;;10.90;98.20;;;;;;4987915;28;20788;-80
2022/11/06 08:28:15;;;;;;;1.60;1.20;;;10.90;98.20;;;;;;5003370;28;20505;-81
2022/11/06 08:30:42;;;;;;;1.60;1.30;;;11.00;98.20;;;;;;4991800;28;20841;-80
2022/11/06 08:33:08;;;;;;;1.60;1.10;;;11.00;98.20;;;;;;4996086;28;20499;-80
2022/11/06 08:35:35;;;;;;;1.57;1.10;;;11.10;98.20;;;;;;4992989;28;20584;-81
2022/11/06 08:38:02;;;;;;;1.60;1.20;;;11.20;98.20;;;;;;4998127;28;20494;-82
2022/11/06 08:40:29;;;;;;;1.60;1.27;;;11.20;98.20;;;;;;4994269;28;20589;-81
2022/11/06 08:43:00;;;;;;;1.60;1.10;;;11.20;98.20;;;;;;4998879;28;20508;-81
2022/11/06 08:45:28;;;;;;;1.60;1.20;;;11.20;98.20;;;;;;4996671;28;20492;-81
2022/11/06 08:48:00;;;;;;;1.60;1.20;;;11.20;98.20;;;;;;4999817;28;20496;-82
2022/11/06 08:50:26;;;;;;;3.73;2.13;;;11.20;98.20;;;;;;4990852;28;21005;-80
2022/11/06 08:52:56;;;;;;;1.60;1.10;;;11.20;98.20;;;;;;4995714;28;20483;-80
2022/11/06 08:55:23;;;;;;;1.70;1.33;;;11.30;98.20;;;;;;4991270;28;20465;-82
2022/11/06 08:57:50;;;;;;;1.60;1.10;;;11.30;98.20;;;;;;4996601;28;20499;-81
2022/11/06 09:00:17;;;;;;;1.70;1.30;;;11.40;98.20;;;;;;4988940;28;20456;-81
2022/11/06 09:02:45;;;;;;;1.60;1.10;;;11.50;98.20;;;;;;4995148;28;20491;-85
2022/11/06 09:05:12;;;;;;;1.60;1.10;;;11.60;98.20;;;;;;4986445;28;20461;-81
2022/11/06 09:07:39;;;;;;;1.60;1.10;;;11.70;98.20;;;;;;4994390;28;20524;-81
2022/11/06 09:10:06;;;;;;;1.57;1.03;;;11.80;98.20;;;;;;4990875;28;20485;-81
2022/11/06 09:12:33;;;;;;;1.60;1.10;;;11.90;98.20;;;;;;4991102;28;20490;-82
2022/11/06 09:15:00;;;;;;;1.60;1.10;;;12.00;98.20;;;;;;4991859;28;20472;-81
2022/11/06 09:17:26;;;;;;;1.57;1.10;;;12.00;98.20;;;;;;4994507;28;20502;-81
2022/11/06 09:19:54;;;;;;;1.60;1.10;;;12.10;98.20;;;;;;4995019;28;20467;-81
2022/11/06 09:22:21;;;;;;;1.60;1.10;;;12.10;98.20;;;;;;4995926;28;20488;-81
2022/11/06 09:24:48;;;;;;;1.60;1.00;;;12.10;98.20;;;;;;4996272;28;20460;-81
2022/11/06 09:27:15;;;;;;;1.70;1.50;;;12.10;98.20;;;;;;4990538;28;20547;-80
2022/11/06 09:29:43;;;;;;;1.60;1.30;;;12.30;98.20;;;;;;4993960;28;20493;-83
2022/11/06 09:32:10;;;;;;;1.60;1.00;;;12.30;98.20;;;;;;4988763;28;20743;-81
2022/11/06 09:34:37;;;;;;;1.60;1.10;;;12.40;98.20;;;;;;4995042;28;20580;-79
2022/11/06 09:37:05;;;;;;;1.57;1.10;;;12.50;98.20;;;;;;4984783;28;20484;-80
2022/11/06 09:39:31;;;;;;;1.57;1.00;;;12.50;98.20;;;;;;4994497;28;20457;-83
2022/11/06 09:42:01;;;;;;;1.60;1.20;;;12.50;98.20;;;;;;4990369;28;20480;-80
2022/11/06 09:44:42;;;;;;;1.57;1.10;;;12.50;98.20;;;;;;4995232;28;21025;-81
2022/11/06 09:47:15;;;;;;;1.50;1.00;;;12.40;98.20;;;;;;4988720;28;20480;-81
2022/11/06 09:49:45;;;;;;;1.70;1.30;;;12.20;98.20;;;;;;4993468;28;20489;-82
2022/11/06 09:52:20;;;;;;;1.57;1.00;;;12.20;98.20;;;;;;4990279;28;20492;-81
2022/11/06 09:54:49;;;;;;;1.53;1.00;;;12.20;98.20;;;;;;4996413;28;20468;-82
2022/11/06 09:57:21;;;;;;;1.57;1.00;;;12.20;98.20;;;;;;4985279;28;20490;-80
2022/11/06 09:59:50;;;;;;;1.50;1.00;;;12.30;98.20;;;;;;4989830;28;20627;-82
2022/11/06 10:02:26;;;;;;;1.60;1.00;;;12.50;98.20;;;;;;4987374;28;20491;-83
2022/11/06 10:05:00;;;;;;;1.57;1.00;;;12.60;98.20;;;;;;4989579;28;20471;-81
2022/11/06 10:07:33;;;;;;;1.57;1.10;;;12.60;98.20;;;;;;4987045;28;20882;-80
2022/11/06 10:10:00;;;;;;;1.60;1.10;;;12.80;98.20;;;;;;4989792;28;21155;-80
2022/11/06 10:12:38;;;;;;;1.60;1.10;;;13.00;98.20;;;;;;4990655;28;20582;-84
2022/11/06 10:15:20;;;;;;;1.60;1.10;;;13.10;98.20;;;;;;4988554;28;20553;-83
2022/11/06 10:17:58;;;;;;;1.57;1.00;;;13.20;98.20;;;;;;4991266;28;20506;-81
2022/11/06 10:20:31;;;;;;;1.57;1.00;;;13.30;98.20;;;;;;4987576;28;20465;-80
2022/11/06 10:23:18;;;;;;;1.60;1.20;;;13.40;98.20;;;;;;4994692;28;20579;-82
2022/11/06 10:25:59;;;;;;;1.60;1.10;;;13.50;98.20;;;;;;4987439;28;20463;-81
2022/11/06 10:29:06;;;;;;;1.53;1.00;;;13.60;98.20;;;;;;4973625;28;20484;-80
2022/11/06 10:31:40;;;;;;;1.53;0.90;;;13.60;98.20;;;;;;4911755;29;20488;-79
2022/11/06 10:34:12;;;;;;;1.57;1.00;;;13.40;98.20;;;;;;4893118;29;20491;-80
2022/11/06 10:36:43;;;;;;;1.57;1.00;;;13.30;98.20;;;;;;4951310;28;20879;-80
2022/11/06 10:39:16;;;;;;;1.57;1.03;;;13.30;98.20;;;;;;4993947;28;20562;-80
2022/11/06 10:41:48;;;;;;;1.57;1.00;;;13.20;98.20;;;;;;4982782;28;20996;-80
2022/11/06 10:44:21;;;;;;;1.57;1.00;;;13.20;98.20;;;;;;4994265;28;20780;-81
2022/11/06 10:46:53;;;;;;;1.60;1.10;;;13.10;98.20;;;;;;4982679;28;20695;-82
2022/11/06 10:49:31;;;;;;;1.53;1.00;;;13.00;98.20;;;;;;4995718;28;20556;-81
2022/11/06 10:52:33;;;;;;;1.50;1.00;;;13.00;98.20;;;;;;4987224;28;20494;-82
2022/11/06 10:55:25;;;;;;;1.60;1.10;;;12.90;98.20;;;;;;4988140;28;20842;-82
2022/11/06 10:57:55;;;;;;;1.50;1.00;;;12.90;98.20;;;;;;4979057;28;20815;-81
2022/11/06 11:00:22;;;;;;;1.57;1.00;;;12.90;98.20;;;;;;4988166;28;20475;-82
2022/11/06 11:02:52;;;;;;;1.57;1.10;;;12.90;98.20;;;;;;4987358;28;21083;-82
2022/11/06 11:05:22;;;;;;;1.53;0.90;;;12.80;98.20;;;;;;4987124;28;20556;-82
2022/11/06 11:07:50;;;;;;;1.57;1.10;;;12.70;98.20;;;;;;4990315;28;20499;-81
2022/11/06 11:10:30;;;;;;;1.57;1.10;;;12.70;98.20;;;;;;4986599;28;20489;-81
2022/11/06 11:12:59;;;;;;;1.53;1.00;;;12.60;98.20;;;;;;4988128;28;20487;-78
2022/11/06 11:15:28;;;;;;;1.53;1.00;;;12.60;98.20;;;;;;4985404;28;20473;-81
2022/11/06 11:18:15;;;;;;;1.57;1.00;;;12.70;98.20;;;;;;4988525;28;20503;-81
2022/11/06 11:20:43;;;;;;;1.57;1.00;;;12.60;98.20;;;;;;4983857;28;20465;-83
2022/11/06 11:23:16;;;;;;;1.53;1.00;;;12.60;98.20;;;;;;4985936;28;20492;-81
2022/11/06 11:25:46;;;;;;;1.53;1.00;;;12.60;98.20;;;;;;4985896;28;20480;-81
2022/11/06 11:28:29;;;;;;;1.53;1.00;;;12.50;98.20;;;;;;4988130;28;20634;-80
2022/11/06 11:31:02;;;;;;;1.57;1.00;;;12.50;98.20;;;;;;4976280;28;20496;-81
2022/11/06 11:33:29;;;;;;;1.53;1.10;;;12.40;98.20;;;;;;4999641;28;20471;-81
2022/11/06 11:35:56;;;;;;;1.50;1.00;;;12.40;98.20;;;;;;4975709;28;20831;-80
2022/11/06 11:38:24;;;;;;;1.50;1.00;;;12.50;98.20;;;;;;5000416;28;20489;-82
2022/11/06 11:41:06;;;;;;;1.53;1.00;;;12.60;98.20;;;;;;4975792;28;20472;-82
2022/11/06 11:43:33;;;;;;;1.53;1.00;;;12.70;98.20;;;;;;5001546;28;20487;-80
2022/11/06 11:46:19;;;;;;;1.50;1.00;;;12.80;98.20;;;;;;4975206;28;21008;-81
2022/11/06 11:48:48;;;;;;;1.60;1.10;;;12.80;98.20;;;;;;4997224;28;20488;-80
2022/11/06 11:51:28;;;;;;;1.50;1.00;;;12.80;98.20;;;;;;4978491;28;20587;-80
2022/11/06 11:54:15;;;;;;;1.53;1.00;;;12.80;98.20;;;;;;4996245;28;20479;-82
2022/11/06 11:56:48;;;;;;;1.70;1.47;;;12.90;98.20;;;;;;4979433;28;20992;-81
2022/11/06 11:59:19;;;;;;;1.53;1.00;;;12.90;98.20;;;;;;4991449;28;20888;-82
2022/11/06 12:01:46;;;;;;;1.50;1.00;;;12.90;98.20;;;;;;4980589;28;20482;-81
2022/11/06 12:04:20;;;;;;;1.57;1.00;;;13.00;98.20;;;;;;4994109;28;20492;-81
2022/11/06 12:06:56;;;;;;;1.53;1.03;;;12.90;98.20;;;;;;4980666;28;20548;-82
2022/11/06 12:09:24;;;;;;;1.53;1.00;;;12.90;98.20;;;;;;4991974;28;20572;-82
2022/11/06 12:11:53;;;;;;;1.50;1.00;;;12.90;98.20;;;;;;4984127;28;20492;-82
2022/11/06 12:14:33;;;;;;;1.53;1.10;;;12.90;98.20;;;;;;4994180;28;20468;-81
2022/11/06 12:17:09;;;;;;;1.73;1.63;;;12.80;98.20;;;;;;4984843;28;20541;-80
2022/11/06 12:19:38;;;;;;;1.57;1.00;;;12.80;98.20;;;;;;4991563;28;20476;-82
2022/11/06 12:22:10;;;;;;;1.60;1.10;;;12.80;98.20;;;;;;4984324;28;20495;-82
2022/11/06 12:24:44;;;;;;;1.50;1.00;;;12.80;98.20;;;;;;4989292;28;20491;-83
2022/11/06 12:27:17;;;;;;;1.60;1.10;;;12.70;98.20;;;;;;4983994;28;20577;-81
2022/11/06 12:29:48;;;;;;;1.50;1.00;;;12.80;98.20;;;;;;4989765;28;20465;-83
2022/11/06 12:32:26;;;;;;;1.60;1.10;;;12.70;98.20;;;;;;4984363;28;21123;-82
2022/11/06 12:35:01;;;;;;;1.50;1.00;;;12.70;98.20;;;;;;4986173;28;20473;-82
2022/11/06 12:37:38;;;;;;;1.57;1.00;;;12.70;98.20;;;;;;4987757;28;20519;-81
2022/11/06 12:40:17;;;;;;;1.50;1.00;;;12.70;98.20;;;;;;4985858;28;20814;-82
2022/11/06 12:42:58;;;;;;;1.57;1.00;;;12.70;98.20;;;;;;4983203;28;20501;-83
2022/11/06 12:45:35;;;;;;;1.53;1.00;;;12.80;98.20;;;;;;4978844;28;20979;-81
2022/11/06 12:48:13;;;;;;;1.70;1.20;;;12.80;98.20;;;;;;4985343;28;21060;-83
2022/11/06 12:50:44;;;;;;;1.57;1.10;;;12.70;98.20;;;;;;4983649;28;20494;-82
2022/11/06 12:53:24;;;;;;;1.50;1.00;;;12.80;98.20;;;;;;4988041;28;20485;-81
2022/11/06 12:55:57;;;;;;;1.60;1.33;;;12.80;98.20;;;;;;4975115;28;20522;-83
2022/11/06 12:58:57;;;;;;;1.60;1.30;;;13.00;98.20;;;;;;4998721;28;20520;-81
2022/11/06 13:01:36;;;;;;;1.57;1.00;;;13.10;98.20;;;;;;4981200;28;20487;-82
2022/11/06 13:04:18;;;;;;;1.50;1.00;;;13.20;98.20;;;;;;4995036;28;20471;-81
2022/11/06 13:07:19;;;;;;;1.53;1.00;;;13.30;98.20;;;;;;4978897;28;20698;-80
2022/11/06 13:09:53;;;;;;;1.50;1.00;;;13.30;98.20;;;;;;4986408;28;20463;-81
2022/11/06 13:12:24;;;;;;;1.60;1.10;;;13.30;98.10;;;;;;4984554;28;20482;-80
2022/11/06 13:15:11;;;;;;;1.53;1.00;;;13.20;97.70;;;;;;4987274;28;20467;-81
2022/11/06 13:17:46;;;;;;;1.57;1.10;;;13.20;98.20;;;;;;4987296;28;20479;-79
2022/11/06 13:20:21;;;;;;;1.60;1.10;;;13.10;98.20;;;;;;4984945;28;20472;-82
2022/11/06 13:22:53;;;;;;;2.23;2.03;;;13.10;98.10;;;;;;4985279;28;21069;-80
2022/11/06 13:25:23;;;;;;;1.57;1.10;;;13.10;98.10;;;;;;4984537;28;20477;-81
2022/11/06 13:27:56;;;;;;;1.53;1.00;;;13.00;98.00;;;;;;4987033;28;20531;-79